sensor_id;sensor_type;location;lat;lon;timestamp;temperature;humidity
58809;DHT22;44579;51.672;7.834;2023-06-05T00:00:25;15.80;59.80
58809;DHT22;44579;51.672;7.834;2023-06-05T00:02:53;15.70;59.90
58809;DHT22;44579;51.672;7.834;2023-06-05T00:05:20;15.80;59.90
58809;DHT22;44579;51.672;7.834;2023-06-05T00:07:47;15.70;59.70
58809;DHT22;44579;51.672;7.834;2023-06-05T00:10:14;15.70;59.80
58809;DHT22;44579;51.672;7.834;2023-06-05T00:12:41;15.60;60.10
58809;DHT22;44579;51.672;7.834;2023-06-05T00:15:08;15.60;60.20
58809;DHT22;44579;51.672;7.834;2023-06-05T00:17:36;15.60;60.00
58809;DHT22;44579;51.672;7.834;2023-06-05T00:20:03;15.50;59.80
58809;DHT22;44579;51.672;7.834;2023-06-05T00:22:36;15.50;59.80
58809;DHT22;44579;51.672;7.834;2023-06-05T00:25:03;15.50;59.90
58809;DHT22;44579;51.672;7.834;2023-06-05T00:27:30;15.50;59.70
58809;DHT22;44579;51.672;7.834;2023-06-05T00:29:57;15.40;60.10
58809;DHT22;44579;51.672;7.834;2023-06-05T00:32:24;15.40;60.10
58809;DHT22;44579;51.672;7.834;2023-06-05T00:34:51;15.30;60.00
58809;DHT22;44579;51.672;7.834;2023-06-05T00:37:19;15.30;59.80
58809;DHT22;44579;51.672;7.834;2023-06-05T00:39:46;15.30;59.70
58809;DHT22;44579;51.672;7.834;2023-06-05T00:42:13;15.30;59.80
58809;DHT22;44579;51.672;7.834;2023-06-05T00:44:39;15.30;59.80
58809;DHT22;44579;51.672;7.834;2023-06-05T00:47:07;15.30;59.80
58809;DHT22;44579;51.672;7.834;2023-06-05T00:49:34;15.20;59.80
58809;DHT22;44579;51.672;7.834;2023-06-05T00:52:01;15.20;59.80
58809;DHT22;44579;51.672;7.834;2023-06-05T00:54:28;15.20;59.80
58809;DHT22;44579;51.672;7.834;2023-06-05T00:56:56;15.10;59.80
58809;DHT22;44579;51.672;7.834;2023-06-05T00:59:23;15.10;59.80
58809;DHT22;44579;51.672;7.834;2023-06-05T01:01:50;15.00;59.80
58809;DHT22;44579;51.672;7.834;2023-06-05T01:04:19;15.00;60.00
58809;DHT22;44579;51.672;7.834;2023-06-05T01:06:46;14.90;60.40
58809;DHT22;44579;51.672;7.834;2023-06-05T01:09:13;14.90;60.30
58809;DHT22;44579;51.672;7.834;2023-06-05T01:11:44;14.80;61.20
58809;DHT22;44579;51.672;7.834;2023-06-05T01:16:44;14.90;60.40
58809;DHT22;44579;51.672;7.834;2023-06-05T01:19:13;14.80;60.30
58809;DHT22;44579;51.672;7.834;2023-06-05T01:21:41;14.80;60.30
58809;DHT22;44579;51.672;7.834;2023-06-05T01:24:08;14.80;60.30
58809;DHT22;44579;51.672;7.834;2023-06-05T01:26:36;14.80;60.20
58809;DHT22;44579;51.672;7.834;2023-06-05T01:29:07;14.70;60.20
58809;DHT22;44579;51.672;7.834;2023-06-05T01:31:37;14.70;60.30
58809;DHT22;44579;51.672;7.834;2023-06-05T01:34:05;14.70;60.30
58809;DHT22;44579;51.672;7.834;2023-06-05T01:36:36;14.70;60.30
58809;DHT22;44579;51.672;7.834;2023-06-05T01:39:04;14.60;60.40
58809;DHT22;44579;51.672;7.834;2023-06-05T01:41:32;14.60;60.90
58809;DHT22;44579;51.672;7.834;2023-06-05T01:43:59;14.50;61.00
58809;DHT22;44579;51.672;7.834;2023-06-05T01:46:27;14.50;61.10
58809;DHT22;44579;51.672;7.834;2023-06-05T01:48:54;14.50;61.20
58809;DHT22;44579;51.672;7.834;2023-06-05T01:51:22;14.50;61.10
58809;DHT22;44579;51.672;7.834;2023-06-05T01:53:49;14.40;61.20
58809;DHT22;44579;51.672;7.834;2023-06-05T01:56:16;14.30;61.30
58809;DHT22;44579;51.672;7.834;2023-06-05T01:58:46;14.30;61.40
58809;DHT22;44579;51.672;7.834;2023-06-05T02:01:14;14.20;62.30
58809;DHT22;44579;51.672;7.834;2023-06-05T02:03:42;14.10;62.90
58809;DHT22;44579;51.672;7.834;2023-06-05T02:06:16;14.10;63.10
58809;DHT22;44579;51.672;7.834;2023-06-05T02:08:43;14.00;63.00
58809;DHT22;44579;51.672;7.834;2023-06-05T02:11:10;14.00;63.10
58809;DHT22;44579;51.672;7.834;2023-06-05T02:13:38;14.00;63.40
58809;DHT22;44579;51.672;7.834;2023-06-05T02:16:10;13.90;63.70
58809;DHT22;44579;51.672;7.834;2023-06-05T02:18:37;13.90;63.90
58809;DHT22;44579;51.672;7.834;2023-06-05T02:21:04;13.90;64.30
58809;DHT22;44579;51.672;7.834;2023-06-05T02:23:31;13.90;64.60
58809;DHT22;44579;51.672;7.834;2023-06-05T02:25:58;13.80;64.80
58809;DHT22;44579;51.672;7.834;2023-06-05T02:28:25;13.80;64.80
58809;DHT22;44579;51.672;7.834;2023-06-05T02:30:54;13.70;64.90
58809;DHT22;44579;51.672;7.834;2023-06-05T02:33:21;13.70;64.80
58809;DHT22;44579;51.672;7.834;2023-06-05T02:35:50;13.70;64.70
58809;DHT22;44579;51.672;7.834;2023-06-05T02:38:18;13.70;64.50
58809;DHT22;44579;51.672;7.834;2023-06-05T02:40:45;13.70;64.30
58809;DHT22;44579;51.672;7.834;2023-06-05T02:43:12;13.70;64.40
58809;DHT22;44579;51.672;7.834;2023-06-05T02:45:41;13.70;64.20
58809;DHT22;44579;51.672;7.834;2023-06-05T02:48:08;13.70;64.10
58809;DHT22;44579;51.672;7.834;2023-06-05T02:50:35;13.60;64.00
58809;DHT22;44579;51.672;7.834;2023-06-05T02:53:07;13.60;64.10
58809;DHT22;44579;51.672;7.834;2023-06-05T02:55:37;13.60;64.50
58809;DHT22;44579;51.672;7.834;2023-06-05T02:58:09;13.50;64.70
58809;DHT22;44579;51.672;7.834;2023-06-05T03:00:45;13.50;64.80
58809;DHT22;44579;51.672;7.834;2023-06-05T03:03:15;13.50;64.60
58809;DHT22;44579;51.672;7.834;2023-06-05T03:05:46;13.50;64.60
58809;DHT22;44579;51.672;7.834;2023-06-05T03:08:16;13.50;64.50
58809;DHT22;44579;51.672;7.834;2023-06-05T03:10:45;13.40;64.40
58809;DHT22;44579;51.672;7.834;2023-06-05T03:13:12;13.40;64.80
58809;DHT22;44579;51.672;7.834;2023-06-05T03:15:39;13.40;64.90
58809;DHT22;44579;51.672;7.834;2023-06-05T03:18:10;13.30;65.00
58809;DHT22;44579;51.672;7.834;2023-06-05T03:20:38;13.30;65.00
58809;DHT22;44579;51.672;7.834;2023-06-05T03:23:06;13.30;65.20
58809;DHT22;44579;51.672;7.834;2023-06-05T03:25:35;13.20;65.30
58809;DHT22;44579;51.672;7.834;2023-06-05T03:28:02;13.20;65.20
58809;DHT22;44579;51.672;7.834;2023-06-05T03:30:32;13.20;65.30
58809;DHT22;44579;51.672;7.834;2023-06-05T03:33:01;13.20;65.40
58809;DHT22;44579;51.672;7.834;2023-06-05T03:35:30;13.20;65.60
58809;DHT22;44579;51.672;7.834;2023-06-05T03:38:03;13.20;65.90
58809;DHT22;44579;51.672;7.834;2023-06-05T03:40:29;13.10;65.90
58809;DHT22;44579;51.672;7.834;2023-06-05T03:42:57;13.10;66.10
58809;DHT22;44579;51.672;7.834;2023-06-05T03:45:25;13.10;66.20
58809;DHT22;44579;51.672;7.834;2023-06-05T03:47:54;13.10;66.20
58809;DHT22;44579;51.672;7.834;2023-06-05T03:50:29;13.10;66.30
58809;DHT22;44579;51.672;7.834;2023-06-05T03:52:58;13.20;66.10
58809;DHT22;44579;51.672;7.834;2023-06-05T03:55:32;13.20;65.80
58809;DHT22;44579;51.672;7.834;2023-06-05T03:58:16;13.30;65.60
58809;DHT22;44579;51.672;7.834;2023-06-05T04:00:47;13.30;65.60
58809;DHT22;44579;51.672;7.834;2023-06-05T04:03:17;13.40;65.60
58809;DHT22;44579;51.672;7.834;2023-06-05T04:05:47;13.60;65.50
58809;DHT22;44579;51.672;7.834;2023-06-05T04:08:15;13.70;65.70
58809;DHT22;44579;51.672;7.834;2023-06-05T04:10:42;13.80;65.90
58809;DHT22;44579;51.672;7.834;2023-06-05T04:13:10;13.90;66.10
58809;DHT22;44579;51.672;7.834;2023-06-05T04:15:42;14.00;66.30
58809;DHT22;44579;51.672;7.834;2023-06-05T04:18:11;14.30;66.30
58809;DHT22;44579;51.672;7.834;2023-06-05T04:20:39;14.50;66.10
58809;DHT22;44579;51.672;7.834;2023-06-05T04:23:08;14.70;65.90
58809;DHT22;44579;51.672;7.834;2023-06-05T04:25:39;15.00;65.70
58809;DHT22;44579;51.672;7.834;2023-06-05T04:28:12;15.20;65.30
58809;DHT22;44579;51.672;7.834;2023-06-05T04:30:39;15.40;65.20
58809;DHT22;44579;51.672;7.834;2023-06-05T04:33:07;15.40;65.30
58809;DHT22;44579;51.672;7.834;2023-06-05T04:35:36;15.50;65.40
58809;DHT22;44579;51.672;7.834;2023-06-05T04:38:03;15.70;65.40
58809;DHT22;44579;51.672;7.834;2023-06-05T04:40:30;15.70;65.40
58809;DHT22;44579;51.672;7.834;2023-06-05T04:42:58;15.80;65.50
58809;DHT22;44579;51.672;7.834;2023-06-05T04:45:25;16.00;65.20
58809;DHT22;44579;51.672;7.834;2023-06-05T04:47:52;16.10;65.10
58809;DHT22;44579;51.672;7.834;2023-06-05T04:50:26;16.30;65.10
58809;DHT22;44579;51.672;7.834;2023-06-05T04:53:01;16.30;65.20
58809;DHT22;44579;51.672;7.834;2023-06-05T04:55:28;16.40;65.00
58809;DHT22;44579;51.672;7.834;2023-06-05T04:57:56;16.50;64.90
58809;DHT22;44579;51.672;7.834;2023-06-05T05:00:30;16.60;64.70
58809;DHT22;44579;51.672;7.834;2023-06-05T05:02:59;16.70;64.60
58809;DHT22;44579;51.672;7.834;2023-06-05T05:05:27;16.80;64.70
58809;DHT22;44579;51.672;7.834;2023-06-05T05:07:55;16.90;64.70
58809;DHT22;44579;51.672;7.834;2023-06-05T05:10:24;17.00;64.60
58809;DHT22;44579;51.672;7.834;2023-06-05T05:12:51;17.10;64.50
58809;DHT22;44579;51.672;7.834;2023-06-05T05:15:19;17.10;64.40
58809;DHT22;44579;51.672;7.834;2023-06-05T05:17:47;17.20;64.30
58809;DHT22;44579;51.672;7.834;2023-06-05T05:20:14;17.30;64.30
58809;DHT22;44579;51.672;7.834;2023-06-05T05:22:42;17.10;64.50
58809;DHT22;44579;51.672;7.834;2023-06-05T05:25:09;17.20;64.80
58809;DHT22;44579;51.672;7.834;2023-06-05T05:27:39;17.30;64.50
58809;DHT22;44579;51.672;7.834;2023-06-05T05:30:06;17.40;64.10
58809;DHT22;44579;51.672;7.834;2023-06-05T05:32:34;17.60;64.00
58809;DHT22;44579;51.672;7.834;2023-06-05T05:35:02;17.70;63.80
58809;DHT22;44579;51.672;7.834;2023-06-05T05:37:31;17.90;63.60
58809;DHT22;44579;51.672;7.834;2023-06-05T05:40:01;18.10;63.40
58809;DHT22;44579;51.672;7.834;2023-06-05T05:42:33;18.20;63.20
58809;DHT22;44579;51.672;7.834;2023-06-05T05:45:01;18.20;63.10
58809;DHT22;44579;51.672;7.834;2023-06-05T05:47:29;18.20;63.20
58809;DHT22;44579;51.672;7.834;2023-06-05T05:49:56;18.30;63.00
58809;DHT22;44579;51.672;7.834;2023-06-05T05:52:24;18.40;63.00
58809;DHT22;44579;51.672;7.834;2023-06-05T05:54:51;18.40;63.10
58809;DHT22;44579;51.672;7.834;2023-06-05T05:57:20;18.60;63.00
58809;DHT22;44579;51.672;7.834;2023-06-05T06:00:08;18.70;62.90
58809;DHT22;44579;51.672;7.834;2023-06-05T06:02:38;18.70;62.60
58809;DHT22;44579;51.672;7.834;2023-06-05T06:05:15;18.70;62.40
58809;DHT22;44579;51.672;7.834;2023-06-05T06:08:49;18.80;62.50
58809;DHT22;44579;51.672;7.834;2023-06-05T06:11:25;19.00;62.40
58809;DHT22;44579;51.672;7.834;2023-06-05T06:15:02;19.10;62.30
58809;DHT22;44579;51.672;7.834;2023-06-05T06:17:30;19.20;62.00
58809;DHT22;44579;51.672;7.834;2023-06-05T06:24:30;19.30;61.90
58809;DHT22;44579;51.672;7.834;2023-06-05T06:30:38;19.40;62.60
58809;DHT22;44579;51.672;7.834;2023-06-05T06:33:45;19.20;61.70
58809;DHT22;44579;51.672;7.834;2023-06-05T06:36:22;19.10;61.40
58809;DHT22;44579;51.672;7.834;2023-06-05T06:39:10;19.10;60.80
58809;DHT22;44579;51.672;7.834;2023-06-05T06:41:37;19.00;60.70
58809;DHT22;44579;51.672;7.834;2023-06-05T06:44:12;18.80;61.40
58809;DHT22;44579;51.672;7.834;2023-06-05T06:47:36;18.60;60.70
58809;DHT22;44579;51.672;7.834;2023-06-05T06:50:04;18.50;60.40
58809;DHT22;44579;51.672;7.834;2023-06-05T06:52:31;18.50;60.30
58809;DHT22;44579;51.672;7.834;2023-06-05T06:54:59;18.40;60.00
58809;DHT22;44579;51.672;7.834;2023-06-05T06:57:28;18.20;60.20
58809;DHT22;44579;51.672;7.834;2023-06-05T07:00:14;18.10;60.50
58809;DHT22;44579;51.672;7.834;2023-06-05T07:02:44;18.10;60.30
58809;DHT22;44579;51.672;7.834;2023-06-05T07:13:08;18.00;60.10
58809;DHT22;44579;51.672;7.834;2023-06-05T07:16:24;17.90;60.00
58809;DHT22;44579;51.672;7.834;2023-06-05T07:18:55;17.80;60.30
58809;DHT22;44579;51.672;7.834;2023-06-05T07:21:24;17.80;60.30
58809;DHT22;44579;51.672;7.834;2023-06-05T07:23:58;17.80;60.00
58809;DHT22;44579;51.672;7.834;2023-06-05T07:26:34;17.80;59.70
58809;DHT22;44579;51.672;7.834;2023-06-05T07:29:01;17.90;59.60
58809;DHT22;44579;51.672;7.834;2023-06-05T07:31:31;17.90;59.50
58809;DHT22;44579;51.672;7.834;2023-06-05T07:34:06;17.90;59.40
58809;DHT22;44579;51.672;7.834;2023-06-05T07:36:33;17.90;59.50
58809;DHT22;44579;51.672;7.834;2023-06-05T07:39:01;17.90;59.80
58809;DHT22;44579;51.672;7.834;2023-06-05T07:41:28;17.90;59.80
58809;DHT22;44579;51.672;7.834;2023-06-05T07:43:57;17.90;59.70
58809;DHT22;44579;51.672;7.834;2023-06-05T07:46:30;17.90;59.70
58809;DHT22;44579;51.672;7.834;2023-06-05T07:56:20;18.00;59.50
58809;DHT22;44579;51.672;7.834;2023-06-05T07:59:08;18.10;59.70
58809;DHT22;44579;51.672;7.834;2023-06-05T08:09:52;18.20;59.30
58809;DHT22;44579;51.672;7.834;2023-06-05T08:12:20;18.20;59.50
58809;DHT22;44579;51.672;7.834;2023-06-05T08:14:47;18.20;59.80
58809;DHT22;44579;51.672;7.834;2023-06-05T08:17:19;18.20;59.90
58809;DHT22;44579;51.672;7.834;2023-06-05T08:20:00;18.30;60.00
58809;DHT22;44579;51.672;7.834;2023-06-05T08:22:33;18.30;59.90
58809;DHT22;44579;51.672;7.834;2023-06-05T08:25:04;18.30;59.80
58809;DHT22;44579;51.672;7.834;2023-06-05T08:27:32;18.40;59.90
58809;DHT22;44579;51.672;7.834;2023-06-05T08:29:59;18.40;60.10
58809;DHT22;44579;51.672;7.834;2023-06-05T08:33:23;18.40;60.00
58809;DHT22;44579;51.672;7.834;2023-06-05T08:37:08;18.60;59.70
58809;DHT22;44579;51.672;7.834;2023-06-05T08:40:18;18.70;59.50
58809;DHT22;44579;51.672;7.834;2023-06-05T08:42:45;18.70;59.40
58809;DHT22;44579;51.672;7.834;2023-06-05T08:45:13;18.80;59.30
58809;DHT22;44579;51.672;7.834;2023-06-05T08:47:43;18.90;59.20
58809;DHT22;44579;51.672;7.834;2023-06-05T08:50:11;18.90;59.40
58809;DHT22;44579;51.672;7.834;2023-06-05T08:52:42;18.90;59.70
58809;DHT22;44579;51.672;7.834;2023-06-05T08:58:47;18.90;59.30
58809;DHT22;44579;51.672;7.834;2023-06-05T09:02:28;19.00;60.00
58809;DHT22;44579;51.672;7.834;2023-06-05T09:05:42;19.10;59.80
58809;DHT22;44579;51.672;7.834;2023-06-05T09:08:09;19.10;59.60
58809;DHT22;44579;51.672;7.834;2023-06-05T09:10:36;19.20;59.50
58809;DHT22;44579;51.672;7.834;2023-06-05T09:13:07;19.20;59.40
58809;DHT22;44579;51.672;7.834;2023-06-05T09:15:49;19.30;59.40
58809;DHT22;44579;51.672;7.834;2023-06-05T09:18:16;19.30;59.40
58809;DHT22;44579;51.672;7.834;2023-06-05T09:20:45;19.40;59.40
58809;DHT22;44579;51.672;7.834;2023-06-05T09:23:36;19.40;59.30
58809;DHT22;44579;51.672;7.834;2023-06-05T09:26:09;19.40;59.10
58809;DHT22;44579;51.672;7.834;2023-06-05T09:29:30;19.50;59.10
58809;DHT22;44579;51.672;7.834;2023-06-05T09:43:28;19.80;58.60
58809;DHT22;44579;51.672;7.834;2023-06-05T09:57:58;20.00;57.60
58809;DHT22;44579;51.672;7.834;2023-06-05T10:00:50;20.10;57.40
58809;DHT22;44579;51.672;7.834;2023-06-05T10:08:30;20.20;57.00
58809;DHT22;44579;51.672;7.834;2023-06-05T10:12:00;20.30;56.40
58809;DHT22;44579;51.672;7.834;2023-06-05T10:14:32;20.40;56.30
58809;DHT22;44579;51.672;7.834;2023-06-05T10:35:43;20.80;54.40
58809;DHT22;44579;51.672;7.834;2023-06-05T10:42:44;20.90;54.70
58809;DHT22;44579;51.672;7.834;2023-06-05T10:53:07;21.20;54.20
58809;DHT22;44579;51.672;7.834;2023-06-05T11:11:11;21.50;52.90
58809;DHT22;44579;51.672;7.834;2023-06-05T11:14:01;21.50;51.80
58809;DHT22;44579;51.672;7.834;2023-06-05T11:17:39;21.60;51.00
58809;DHT22;44579;51.672;7.834;2023-06-05T11:24:30;21.70;49.90
58809;DHT22;44579;51.672;7.834;2023-06-05T11:32:43;21.80;50.20
58809;DHT22;44579;51.672;7.834;2023-06-05T11:35:41;21.90;48.10
58809;DHT22;44579;51.672;7.834;2023-06-05T11:38:21;21.90;49.00
58809;DHT22;44579;51.672;7.834;2023-06-05T11:41:19;22.00;48.40
58809;DHT22;44579;51.672;7.834;2023-06-05T11:43:55;22.00;48.40
58809;DHT22;44579;51.672;7.834;2023-06-05T11:46:57;22.00;48.30
58809;DHT22;44579;51.672;7.834;2023-06-05T11:49:38;22.00;48.60
58809;DHT22;44579;51.672;7.834;2023-06-05T11:52:31;22.10;46.40
58809;DHT22;44579;51.672;7.834;2023-06-05T11:59:01;22.20;46.60
58809;DHT22;44579;51.672;7.834;2023-06-05T12:02:20;22.20;47.10
58809;DHT22;44579;51.672;7.834;2023-06-05T12:05:08;22.30;46.90
58809;DHT22;44579;51.672;7.834;2023-06-05T12:11:02;22.40;46.30
58809;DHT22;44579;51.672;7.834;2023-06-05T12:13:54;22.50;46.90
58809;DHT22;44579;51.672;7.834;2023-06-05T12:16:34;22.50;47.00
58809;DHT22;44579;51.672;7.834;2023-06-05T12:19:56;22.70;47.70
58809;DHT22;44579;51.672;7.834;2023-06-05T12:22:09;22.60;47.90
58809;DHT22;44579;51.672;7.834;2023-06-05T12:28:29;22.80;47.90
58809;DHT22;44579;51.672;7.834;2023-06-05T12:32:22;22.80;48.30
58809;DHT22;44579;51.672;7.834;2023-06-05T12:36:07;22.80;48.70
58809;DHT22;44579;51.672;7.834;2023-06-05T12:38:41;23.00;48.80
58809;DHT22;44579;51.672;7.834;2023-06-05T12:42:32;23.10;48.90
58809;DHT22;44579;51.672;7.834;2023-06-05T12:45:36;23.10;48.90
58809;DHT22;44579;51.672;7.834;2023-06-05T12:48:26;23.00;48.10
58809;DHT22;44579;51.672;7.834;2023-06-05T12:51:16;23.00;47.60
58809;DHT22;44579;51.672;7.834;2023-06-05T12:57:03;23.00;45.20
58809;DHT22;44579;51.672;7.834;2023-06-05T12:59:46;23.00;44.50
58809;DHT22;44579;51.672;7.834;2023-06-05T13:02:37;23.00;43.40
58809;DHT22;44579;51.672;7.834;2023-06-05T13:05:06;23.10;43.60
58809;DHT22;44579;51.672;7.834;2023-06-05T13:07:33;23.00;44.30
58809;DHT22;44579;51.672;7.834;2023-06-05T13:10:14;23.00;44.30
58809;DHT22;44579;51.672;7.834;2023-06-05T13:13:04;23.00;44.00
58809;DHT22;44579;51.672;7.834;2023-06-05T13:15:31;23.00;44.00
58809;DHT22;44579;51.672;7.834;2023-06-05T13:17:58;23.00;44.40
58809;DHT22;44579;51.672;7.834;2023-06-05T13:20:27;23.00;44.50
58809;DHT22;44579;51.672;7.834;2023-06-05T13:22:54;23.10;44.60
58809;DHT22;44579;51.672;7.834;2023-06-05T13:25:21;23.10;44.90
58809;DHT22;44579;51.672;7.834;2023-06-05T13:27:49;23.20;45.10
58809;DHT22;44579;51.672;7.834;2023-06-05T13:30:16;23.20;45.20
58809;DHT22;44579;51.672;7.834;2023-06-05T13:32:43;23.30;45.50
58809;DHT22;44579;51.672;7.834;2023-06-05T13:35:17;23.30;45.40
58809;DHT22;44579;51.672;7.834;2023-06-05T13:37:57;23.40;44.70
58809;DHT22;44579;51.672;7.834;2023-06-05T13:40:25;23.40;44.90
58809;DHT22;44579;51.672;7.834;2023-06-05T13:43:14;23.40;44.80
58809;DHT22;44579;51.672;7.834;2023-06-05T13:45:49;23.40;44.00
58809;DHT22;44579;51.672;7.834;2023-06-05T13:48:21;23.40;43.20
58809;DHT22;44579;51.672;7.834;2023-06-05T13:53:58;23.40;43.20
58809;DHT22;44579;51.672;7.834;2023-06-05T13:56:25;23.40;43.00
58809;DHT22;44579;51.672;7.834;2023-06-05T13:58:52;23.40;42.70
58809;DHT22;44579;51.672;7.834;2023-06-05T14:01:24;23.40;42.40
58809;DHT22;44579;51.672;7.834;2023-06-05T14:03:57;23.50;42.30
58809;DHT22;44579;51.672;7.834;2023-06-05T14:06:24;23.50;42.00
58809;DHT22;44579;51.672;7.834;2023-06-05T14:08:51;23.50;41.60
58809;DHT22;44579;51.672;7.834;2023-06-05T14:11:21;23.50;41.60
58809;DHT22;44579;51.672;7.834;2023-06-05T14:13:49;23.50;41.60
58809;DHT22;44579;51.672;7.834;2023-06-05T14:16:16;23.60;41.40
58809;DHT22;44579;51.672;7.834;2023-06-05T14:18:46;23.60;41.00
58809;DHT22;44579;51.672;7.834;2023-06-05T14:21:32;23.60;40.90
58809;DHT22;44579;51.672;7.834;2023-06-05T14:23:59;23.60;41.00
58809;DHT22;44579;51.672;7.834;2023-06-05T14:26:27;23.60;41.00
58809;DHT22;44579;51.672;7.834;2023-06-05T14:28:57;23.60;41.20
58809;DHT22;44579;51.672;7.834;2023-06-05T14:31:24;23.70;41.30
58809;DHT22;44579;51.672;7.834;2023-06-05T14:33:53;23.70;41.10
58809;DHT22;44579;51.672;7.834;2023-06-05T14:36:20;23.70;41.10
58809;DHT22;44579;51.672;7.834;2023-06-05T14:38:48;23.70;41.00
58809;DHT22;44579;51.672;7.834;2023-06-05T14:41:15;23.70;41.20
58809;DHT22;44579;51.672;7.834;2023-06-05T14:43:50;23.70;41.20
58809;DHT22;44579;51.672;7.834;2023-06-05T14:46:18;23.70;41.50
58809;DHT22;44579;51.672;7.834;2023-06-05T14:48:45;23.70;41.40
58809;DHT22;44579;51.672;7.834;2023-06-05T14:51:16;23.70;41.10
58809;DHT22;44579;51.672;7.834;2023-06-05T14:53:43;23.80;41.20
58809;DHT22;44579;51.672;7.834;2023-06-05T14:56:10;23.80;41.00
58809;DHT22;44579;51.672;7.834;2023-06-05T14:58:37;23.80;41.20
58809;DHT22;44579;51.672;7.834;2023-06-05T15:01:04;23.80;41.20
58809;DHT22;44579;51.672;7.834;2023-06-05T15:03:31;23.80;40.80
58809;DHT22;44579;51.672;7.834;2023-06-05T15:06:07;23.80;40.50
58809;DHT22;44579;51.672;7.834;2023-06-05T15:08:54;23.80;40.50
58809;DHT22;44579;51.672;7.834;2023-06-05T15:11:21;23.90;40.50
58809;DHT22;44579;51.672;7.834;2023-06-05T15:13:54;23.80;40.50
58809;DHT22;44579;51.672;7.834;2023-06-05T15:17:12;23.80;40.70
58809;DHT22;44579;51.672;7.834;2023-06-05T15:19:40;23.90;40.70
58809;DHT22;44579;51.672;7.834;2023-06-05T15:22:07;23.90;40.60
58809;DHT22;44579;51.672;7.834;2023-06-05T15:24:34;23.90;40.60
58809;DHT22;44579;51.672;7.834;2023-06-05T15:27:01;23.90;40.40
58809;DHT22;44579;51.672;7.834;2023-06-05T15:29:29;23.90;40.60
58809;DHT22;44579;51.672;7.834;2023-06-05T15:31:56;24.00;40.60
58809;DHT22;44579;51.672;7.834;2023-06-05T15:34:43;23.90;40.50
58809;DHT22;44579;51.672;7.834;2023-06-05T15:37:10;24.00;40.50
58809;DHT22;44579;51.672;7.834;2023-06-05T15:39:37;23.90;40.60
58809;DHT22;44579;51.672;7.834;2023-06-05T15:42:03;23.90;40.60
58809;DHT22;44579;51.672;7.834;2023-06-05T15:44:37;24.00;40.50
58809;DHT22;44579;51.672;7.834;2023-06-05T15:47:07;23.90;40.30
58809;DHT22;44579;51.672;7.834;2023-06-05T15:49:34;23.90;40.30
58809;DHT22;44579;51.672;7.834;2023-06-05T15:52:01;23.90;40.30
58809;DHT22;44579;51.672;7.834;2023-06-05T15:54:31;23.90;40.30
58809;DHT22;44579;51.672;7.834;2023-06-05T15:57:21;23.90;40.30
58809;DHT22;44579;51.672;7.834;2023-06-05T15:59:48;23.90;40.40
58809;DHT22;44579;51.672;7.834;2023-06-05T16:02:14;23.90;40.40
58809;DHT22;44579;51.672;7.834;2023-06-05T16:04:41;24.00;40.50
58809;DHT22;44579;51.672;7.834;2023-06-05T16:07:08;24.00;40.60
58809;DHT22;44579;51.672;7.834;2023-06-05T16:09:36;24.00;40.50
58809;DHT22;44579;51.672;7.834;2023-06-05T16:12:03;24.10;40.60
58809;DHT22;44579;51.672;7.834;2023-06-05T16:14:31;24.10;40.50
58809;DHT22;44579;51.672;7.834;2023-06-05T16:16:58;24.10;40.50
58809;DHT22;44579;51.672;7.834;2023-06-05T16:19:30;24.10;40.40
58809;DHT22;44579;51.672;7.834;2023-06-05T16:21:57;24.10;40.50
58809;DHT22;44579;51.672;7.834;2023-06-05T16:24:28;24.10;40.50
58809;DHT22;44579;51.672;7.834;2023-06-05T16:27:07;24.10;40.60
58809;DHT22;44579;51.672;7.834;2023-06-05T16:29:34;24.20;40.70
58809;DHT22;44579;51.672;7.834;2023-06-05T16:32:01;24.30;40.70
58809;DHT22;44579;51.672;7.834;2023-06-05T16:34:28;24.30;40.50
58809;DHT22;44579;51.672;7.834;2023-06-05T16:36:59;24.30;40.40
58809;DHT22;44579;51.672;7.834;2023-06-05T16:39:26;24.30;40.10
58809;DHT22;44579;51.672;7.834;2023-06-05T16:41:54;24.40;39.90
58809;DHT22;44579;51.672;7.834;2023-06-05T16:44:25;24.50;39.70
58809;DHT22;44579;51.672;7.834;2023-06-05T16:46:54;24.60;39.60
58809;DHT22;44579;51.672;7.834;2023-06-05T16:49:24;24.90;39.50
58809;DHT22;44579;51.672;7.834;2023-06-05T16:51:52;25.30;39.10
58809;DHT22;44579;51.672;7.834;2023-06-05T16:54:26;25.70;38.20
58809;DHT22;44579;51.672;7.834;2023-06-05T16:56:53;26.10;37.70
58809;DHT22;44579;51.672;7.834;2023-06-05T16:59:20;26.40;37.30
58809;DHT22;44579;51.672;7.834;2023-06-05T17:05:15;26.80;36.90
58809;DHT22;44579;51.672;7.834;2023-06-05T17:07:46;27.00;36.40
58809;DHT22;44579;51.672;7.834;2023-06-05T17:10:20;27.00;36.40
58809;DHT22;44579;51.672;7.834;2023-06-05T17:12:47;27.20;36.30
58809;DHT22;44579;51.672;7.834;2023-06-05T17:15:20;27.30;36.30
58809;DHT22;44579;51.672;7.834;2023-06-05T17:17:48;27.30;36.10
58809;DHT22;44579;51.672;7.834;2023-06-05T17:20:18;27.40;35.90
58809;DHT22;44579;51.672;7.834;2023-06-05T17:23:05;27.40;35.70
58809;DHT22;44579;51.672;7.834;2023-06-05T17:25:43;27.50;35.80
58809;DHT22;44579;51.672;7.834;2023-06-05T17:28:18;27.60;35.90
58809;DHT22;44579;51.672;7.834;2023-06-05T17:30:45;27.70;35.40
58809;DHT22;44579;51.672;7.834;2023-06-05T17:33:12;27.70;35.40
58809;DHT22;44579;51.672;7.834;2023-06-05T17:35:39;27.60;34.90
58809;DHT22;44579;51.672;7.834;2023-06-05T17:38:06;27.50;35.00
58809;DHT22;44579;51.672;7.834;2023-06-05T17:44:00;27.50;35.30
58809;DHT22;44579;51.672;7.834;2023-06-05T17:46:31;27.50;35.20
58809;DHT22;44579;51.672;7.834;2023-06-05T17:53:55;27.50;35.30
58809;DHT22;44579;51.672;7.834;2023-06-05T17:56:22;27.50;35.10
58809;DHT22;44579;51.672;7.834;2023-06-05T17:58:53;27.40;35.10
58809;DHT22;44579;51.672;7.834;2023-06-05T18:01:20;27.10;35.30
58809;DHT22;44579;51.672;7.834;2023-06-05T18:03:53;26.70;35.80
58809;DHT22;44579;51.672;7.834;2023-06-05T18:06:20;26.30;36.20
58809;DHT22;44579;51.672;7.834;2023-06-05T18:08:50;25.90;36.60
58809;DHT22;44579;51.672;7.834;2023-06-05T18:11:22;25.60;37.10
58809;DHT22;44579;51.672;7.834;2023-06-05T18:13:49;25.30;37.40
58809;DHT22;44579;51.672;7.834;2023-06-05T18:16:35;25.10;37.80
58809;DHT22;44579;51.672;7.834;2023-06-05T18:19:31;24.90;38.10
58809;DHT22;44579;51.672;7.834;2023-06-05T18:22:09;24.60;38.40
58809;DHT22;44579;51.672;7.834;2023-06-05T18:24:37;24.50;38.70
58809;DHT22;44579;51.672;7.834;2023-06-05T18:27:06;24.30;38.90
58809;DHT22;44579;51.672;7.834;2023-06-05T18:29:33;24.20;39.90
58809;DHT22;44579;51.672;7.834;2023-06-05T18:32:01;24.10;39.40
58809;DHT22;44579;51.672;7.834;2023-06-05T18:34:29;23.90;39.50
58809;DHT22;44579;51.672;7.834;2023-06-05T18:36:57;23.90;39.70
58809;DHT22;44579;51.672;7.834;2023-06-05T18:39:23;23.80;39.70
58809;DHT22;44579;51.672;7.834;2023-06-05T18:41:50;23.80;39.80